Time;durP1;ratioP1;P1;durP2;ratioP2;P2;SDS_P1;SDS_P2;PMS_P1;PMS_P2;Temp;Humidity;BMP_temperature;BMP_pressure;BME280_temperature;BME280_humidity;BME280_pressure;Samples;Min_cycle;Max_cycle;Signal;HPM_P1;HPM_P2
2022/01/22 00:02:05;;;;;;;15.05;4.62;;;;;;;-3.85;100.00;98642.91;4360080;32;20069;-79
2022/01/22 00:04:31;;;;;;;8.57;3.58;;;;;;;-3.61;100.00;98675.44;4361436;32;20499;-79
2022/01/22 00:07:01;;;;;;;19.48;4.43;;;;;;;-3.81;100.00;98638.97;4360409;32;20035;-78
2022/01/22 00:09:35;;;;;;;15.77;4.32;;;;;;;-3.48;100.00;98691.50;4356553;32;20418;-77
2022/01/22 00:12:07;;;;;;;12.98;4.28;;;;;;;-3.55;100.00;98690.56;4357393;32;20065;-77
2022/01/22 00:14:34;;;;;;;13.38;4.53;;;;;;;-3.55;100.00;98685.28;4357910;32;20097;-77
2022/01/22 00:17:01;;;;;;;12.68;5.50;;;;;;;-3.73;100.00;98662.63;4358492;32;20032;-78
2022/01/22 00:19:29;;;;;;;19.40;5.20;;;;;;;-3.74;100.00;98645.19;4355343;32;20058;-77
2022/01/22 00:21:58;;;;;;;12.30;5.78;;;;;;;-3.52;100.00;98684.97;4354371;32;20035;-77
2022/01/22 00:24:24;;;;;;;7.43;3.65;;;;;;;-3.54;100.00;98676.38;4357850;32;20552;-77
2022/01/22 00:26:51;;;;;;;8.90;4.03;;;;;;;-3.59;100.00;98662.91;4358269;32;20053;-77
2022/01/22 00:29:18;;;;;;;8.20;4.35;;;;;;;-3.44;100.00;98679.69;4356530;32;20032;-76
2022/01/22 00:31:44;;;;;;;13.65;5.53;;;;;;;-3.45;100.00;98685.09;4354189;32;20112;-77
2022/01/22 00:34:11;;;;;;;10.65;4.15;;;;;;;-3.40;100.00;98691.50;4357843;32;20740;-78
2022/01/22 00:36:38;;;;;;;12.50;3.90;;;;;;;-3.49;100.00;98674.09;4357807;32;20428;-76
2022/01/22 00:39:05;;;;;;;9.95;3.70;;;;;;;-3.28;100.00;98697.25;4357885;32;20357;-78
2022/01/22 00:41:32;;;;;;;12.32;4.97;;;;;;;-3.50;100.00;98661.91;4356711;32;20057;-78
2022/01/22 00:43:58;;;;;;;10.45;4.22;;;;;;;-3.25;100.00;98706.63;4365295;32;20159;-77
2022/01/22 00:46:24;;;;;;;16.73;4.10;;;;;;;-3.48;100.00;98659.94;4355689;32;21039;-77
2022/01/22 00:48:51;;;;;;;13.43;4.43;;;;;;;-3.26;100.00;98703.16;4357585;32;20399;-78
2022/01/22 00:51:18;;;;;;;11.85;3.83;;;;;;;-3.23;100.00;98704.63;4355906;32;20039;-78
2022/01/22 00:53:44;;;;;;;12.40;4.62;;;;;;;-3.36;100.00;98705.97;4356805;32;20078;-78
2022/01/22 00:56:13;;;;;;;17.37;4.47;;;;;;;-3.32;100.00;98711.72;4355356;32;20035;-78
2022/01/22 00:58:40;;;;;;;13.10;4.37;;;;;;;-3.39;100.00;98701.03;4356766;32;20077;-78
2022/01/22 01:01:06;;;;;;;13.88;5.05;;;;;;;-3.33;100.00;98713.53;4357474;32;20057;-78
2022/01/22 01:03:34;;;;;;;10.25;3.85;;;;;;;-3.51;100.00;98687.44;4357082;32;20061;-78
2022/01/22 01:06:03;;;;;;;9.18;3.40;;;;;;;-3.34;100.00;98706.63;4354919;32;20445;-77
2022/01/22 01:08:32;;;;;;;11.60;3.15;;;;;;;-3.36;100.00;98703.34;4355243;32;20040;-78
2022/01/22 01:11:00;;;;;;;13.07;3.92;;;;;;;-3.60;100.00;98677.09;4355832;32;20388;-79
2022/01/22 01:13:29;;;;;;;13.25;3.83;;;;;;;-3.35;100.00;98712.06;4356719;32;20438;-78
2022/01/22 01:32:20;;;;;;;12.30;3.10;;;;;;;-3.74;100.00;98689.91;4356602;32;20417;-76
2022/01/22 01:34:50;;;;;;;10.27;4.00;;;;;;;-4.07;100.00;98625.97;4356158;32;20087;-78
2022/01/22 01:37:19;;;;;;;10.93;3.37;;;;;;;-4.66;100.00;98528.91;4356349;32;20167;-80
2022/01/22 01:39:49;;;;;;;7.30;3.78;;;;;;;-3.65;100.00;98701.28;4356315;32;20066;-80
2022/01/22 01:42:30;;;;;;;12.20;4.03;;;;;;;-3.98;100.00;98650.50;4339390;33;20385;-78
2022/01/22 01:45:00;;;;;;;15.00;4.10;;;;;;;-3.76;100.00;98705.06;4350960;32;20162;-78
2022/01/22 01:47:27;;;;;;;12.52;3.72;;;;;;;-3.85;100.00;98696.31;4355617;32;20078;-78
2022/01/22 01:49:53;;;;;;;7.35;3.40;;;;;;;-4.15;100.00;98655.72;4355130;32;20362;-77
2022/01/22 01:52:28;;;;;;;8.40;3.80;;;;;;;-4.11;100.00;98662.31;4354534;32;20388;-77
2022/01/22 01:57:50;;;;;;;11.82;3.83;;;;;;;-3.90;100.00;98698.63;4350547;32;20366;-77
2022/01/22 02:00:21;;;;;;;10.73;2.95;;;;;;;-3.99;100.00;98689.09;4354693;32;20198;-78
2022/01/22 02:02:49;;;;;;;11.07;3.22;;;;;;;-4.25;100.00;98634.88;4356197;32;20077;-79
2022/01/22 02:05:20;;;;;;;6.40;2.92;;;;;;;-4.14;100.00;98649.50;4355776;32;20048;-78
2022/01/22 02:07:48;;;;;;;6.10;3.15;;;;;;;-3.98;100.00;98689.94;4355933;32;20824;-77
2022/01/22 02:10:23;;;;;;;11.02;3.03;;;;;;;-3.98;100.00;98697.81;4356168;32;20039;-77
2022/01/22 02:23:48;;;;;;;7.50;2.65;;;;;;;-4.34;100.00;98684.97;4356113;32;20047;-77
2022/01/22 02:26:16;;;;;;;4.57;2.42;;;;;;;-4.35;100.00;98684.16;4353614;32;20043;-77
2022/01/22 02:28:47;;;;;;;7.85;3.25;;;;;;;-4.41;100.00;98669.84;4355413;32;20981;-78
2022/01/22 02:36:29;;;;;;;5.90;2.58;;;;;;;-4.43;100.00;98677.09;4353248;32;20053;-78
2022/01/22 02:41:26;;;;;;;5.72;2.45;;;;;;;-4.36;100.00;98692.22;4354631;32;20040;-80
2022/01/22 02:43:55;;;;;;;8.20;3.58;;;;;;;-4.41;100.00;98685.62;4353317;32;20198;-80
2022/01/22 02:46:26;;;;;;;15.80;3.15;;;;;;;-4.64;100.00;98647.78;4355900;32;20059;-79
2022/01/22 02:48:54;;;;;;;12.85;4.62;;;;;;;-4.43;100.00;98706.00;4355027;32;20035;-79
2022/01/22 02:51:22;;;;;;;9.18;3.85;;;;;;;-4.78;100.00;98644.00;4354152;32;20390;-79
2022/01/22 02:53:53;;;;;;;8.45;3.92;;;;;;;-4.46;100.00;98703.69;4353550;32;20057;-78
2022/01/22 02:56:23;;;;;;;11.27;3.33;;;;;;;-4.59;100.00;98692.81;4355981;32;20328;-78
2022/01/22 02:58:51;;;;;;;6.28;2.90;;;;;;;-4.61;100.00;98694.78;4355180;32;20047;-78
2022/01/22 03:01:20;;;;;;;9.55;3.62;;;;;;;-4.54;100.00;98695.78;4356355;32;20065;-78
2022/01/22 03:03:47;;;;;;;7.05;3.42;;;;;;;-4.67;100.00;98688.38;4353699;32;20055;-78
2022/01/22 03:06:14;;;;;;;9.48;3.42;;;;;;;-4.54;100.00;98703.66;4354634;32;20079;-79
2022/01/22 03:08:42;;;;;;;5.03;2.90;;;;;;;-4.52;100.00;98704.31;4355079;32;20426;-79
2022/01/22 03:11:18;;;;;;;5.47;3.03;;;;;;;-4.58;100.00;98691.81;4348054;33;20081;-79
2022/01/22 03:14:25;;;;;;;7.78;2.47;;;;;;;-4.58;100.00;98699.72;4338022;33;20048;-79
2022/01/22 03:16:53;;;;;;;5.45;2.80;;;;;;;-4.54;100.00;98701.03;4347537;32;20051;-79
2022/01/22 03:19:58;;;;;;;7.40;3.15;;;;;;;-4.51;100.00;98713.06;4354463;32;20069;-79
2022/01/22 03:22:21;;;;;;;5.95;2.87;;;;;;;-4.78;100.00;98667.66;4356043;32;20057;-79
2022/01/22 03:27:34;;;;;;;4.18;2.65;;;;;;;-4.44;100.00;98717.47;4341008;33;20032;-77
2022/01/22 03:30:02;;;;;;;5.25;2.55;;;;;;;-4.51;100.00;98698.09;4338672;33;20066;-78
2022/01/22 03:32:35;;;;;;;9.25;2.75;;;;;;;-4.66;100.00;98676.03;4351230;32;20062;-77
2022/01/22 03:35:23;;;;;;;4.55;2.90;;;;;;;-4.58;100.00;98678.69;4355184;32;20039;-78
2022/01/22 03:37:53;;;;;;;7.50;2.45;;;;;;;-4.32;100.00;98704.87;4350725;32;20062;-77
2022/01/22 03:40:23;;;;;;;6.50;2.50;;;;;;;-4.25;100.00;98721.63;4354870;32;20652;-78
2022/01/22 03:42:51;;;;;;;5.93;1.27;;;;;;;-4.20;100.00;98729.03;4355333;32;20044;-77
2022/01/22 03:45:19;;;;;;;3.92;1.80;;;;;;;-4.39;100.00;98699.44;4354626;32;20044;-77
2022/01/22 03:47:46;;;;;;;3.92;1.70;;;;;;;-3.98;100.00;98742.53;4353115;32;20488;-77
2022/01/22 03:50:16;;;;;;;1.33;1.00;;;;;;;-4.03;100.00;98735.94;4354345;32;20089;-78
2022/01/22 03:52:42;;;;;;;7.93;2.08;;;;;;;-3.91;100.00;98754.03;4354474;33;20040;-78
2022/01/22 03:55:19;;;;;;;5.18;2.20;;;;;;;-4.38;100.00;98668.72;4354149;32;20334;-77
2022/01/22 03:57:48;;;;;;;2.78;2.10;;;;;;;-3.93;100.00;98742.87;4354201;32;20052;-77
2022/01/22 04:00:15;;;;;;;6.57;1.90;;;;;;;-3.98;100.00;98737.28;4354552;33;20440;-77
2022/01/22 04:05:32;;;;;;;9.57;1.60;;;;;;;-4.04;100.00;98733.47;4352969;32;20189;-77
2022/01/22 04:10:25;;;;;;;8.77;2.50;;;;;;;-4.01;100.00;98755.00;4355115;32;20078;-78
2022/01/22 04:13:01;;;;;;;8.65;1.83;;;;;;;-4.04;100.00;98744.84;4355283;32;20052;-79
2022/01/22 04:15:30;;;;;;;11.48;1.98;;;;;;;-4.04;100.00;98750.09;4353939;32;20399;-78
2022/01/22 04:28:40;;;;;;;4.15;1.80;;;;;;;-4.07;100.00;98771.47;4355169;32;20077;-77
2022/01/22 04:31:06;;;;;;;3.75;2.70;;;;;;;-4.03;100.00;98771.97;4356099;32;20070;-78
2022/01/22 04:33:33;;;;;;;12.20;2.95;;;;;;;-4.19;100.00;98767.50;4357359;32;20062;-78
2022/01/22 04:36:00;;;;;;;4.05;1.83;;;;;;;-4.40;100.00;98715.38;4357431;32;20070;-77
2022/01/22 04:38:26;;;;;;;8.07;2.15;;;;;;;-4.20;100.00;98765.84;4357384;32;20175;-77
2022/01/22 04:40:53;;;;;;;3.78;1.67;;;;;;;-4.15;100.00;98776.69;4354957;32;20036;-79
2022/01/22 04:43:20;;;;;;;1.77;1.37;;;;;;;-4.45;100.00;98726.38;4357123;32;20413;-78
2022/01/22 04:46:07;;;;;;;7.70;2.10;;;;;;;-4.14;100.00;98778.34;4357192;32;20070;-78
2022/01/22 04:56:51;;;;;;;7.12;2.08;;;;;;;-4.26;100.00;98792.78;4352215;32;20032;-78
2022/01/22 04:59:19;;;;;;;1.83;1.58;;;;;;;-4.50;100.00;98747.06;4368103;32;20036;-78
2022/01/22 05:01:46;;;;;;;8.30;1.62;;;;;;;-4.54;100.00;98753.59;4355448;32;20117;-78
2022/01/22 05:04:12;;;;;;;12.57;1.92;;;;;;;-4.33;100.00;98789.16;4354668;32;20040;-80
2022/01/22 05:06:39;;;;;;;4.28;2.15;;;;;;;-4.53;100.00;98780.69;4357096;32;20057;-77
2022/01/22 05:09:06;;;;;;;2.62;1.40;;;;;;;-4.47;100.00;98780.87;4356836;32;20077;-77
2022/01/22 05:11:32;;;;;;;4.40;1.70;;;;;;;-4.41;100.00;98793.38;4355997;32;20032;-78
2022/01/22 05:14:01;;;;;;;3.78;1.87;;;;;;;-4.69;100.00;98749.94;4366497;32;20048;-79
2022/01/22 05:16:27;;;;;;;5.55;1.87;;;;;;;-4.53;100.00;98778.06;4355977;32;20369;-80
2022/01/22 05:19:06;;;;;;;5.55;1.62;;;;;;;-4.66;100.00;98765.38;4368160;32;20040;-78
2022/01/22 05:21:36;;;;;;;7.85;2.25;;;;;;;-4.59;100.00;98797.94;4350681;32;20049;-78
2022/01/22 05:24:07;;;;;;;5.18;1.83;;;;;;;-4.77;100.00;98775.19;4342033;33;20078;-79
2022/01/22 05:37:07;;;;;;;3.28;1.77;;;;;;;-4.72;100.00;98768.63;4355914;32;20369;-80
2022/01/22 05:39:35;;;;;;;6.03;1.67;;;;;;;-4.47;100.00;98816.84;4356687;32;20044;-82
2022/01/22 05:42:04;;;;;;;8.18;2.65;;;;;;;-4.82;100.00;98785.34;4354968;32;20044;-82
2022/01/22 05:44:32;;;;;;;6.00;2.15;;;;;;;-4.84;100.00;98795.19;4355085;32;20065;-81
2022/01/22 05:47:03;;;;;;;18.95;3.12;;;;;;;-4.54;100.00;98829.81;4353268;32;20044;-81
2022/01/22 05:49:33;;;;;;;8.52;2.47;;;;;;;-4.54;100.00;98837.69;4356148;32;20350;-78
2022/01/22 05:52:03;;;;;;;7.50;3.05;;;;;;;-4.53;100.00;98834.09;4356689;32;20036;-88
2022/01/22 05:59:46;;;;;;;13.68;3.75;;;;;;;-4.69;100.00;98845.34;4355090;32;20062;-80
2022/01/22 06:02:16;;;;;;;7.85;3.12;;;;;;;-4.69;100.00;98855.00;4354509;32;20355;-80
2022/01/22 06:04:45;;;;;;;5.28;3.33;;;;;;;-4.76;100.00;98852.19;4355140;32;20035;-81
2022/01/22 06:07:13;;;;;;;4.75;2.35;;;;;;;-4.75;100.00;98861.72;4367673;32;20027;-79
2022/01/22 06:09:52;;;;;;;1.40;1.17;;;;;;;-4.72;100.00;98855.31;4356116;32;20061;-80
2022/01/22 06:12:42;;;;;;;6.28;1.80;;;;;;;-4.80;100.00;98862.19;4351379;32;20052;-79
2022/01/22 06:15:06;;;;;;;7.32;2.12;;;;;;;-5.00;100.00;98837.94;4355635;32;20106;-80
2022/01/22 06:17:35;;;;;;;7.18;1.60;;;;;;;-4.97;100.00;98840.25;4354960;32;20389;-80
2022/01/22 06:20:04;;;;;;;3.75;2.30;;;;;;;-4.82;100.00;98866.78;4353531;32;20065;-78
2022/01/22 06:22:31;;;;;;;3.30;1.83;;;;;;;-4.99;100.00;98828.28;4354642;32;20043;-80
2022/01/22 06:24:59;;;;;;;9.48;2.60;;;;;;;-4.99;100.00;98828.28;4355534;32;20047;-80
2022/01/22 06:27:26;;;;;;;1.92;1.62;;;;;;;-4.67;100.00;98880.16;4355074;32;20464;-79
2022/01/22 06:29:53;;;;;;;7.20;1.90;;;;;;;-4.85;100.00;98850.50;4353500;32;20062;-78
2022/01/22 06:32:21;;;;;;;1.75;1.52;;;;;;;-4.64;100.00;98876.38;4354417;32;20423;-81
2022/01/22 06:34:48;;;;;;;8.82;2.67;;;;;;;-4.53;100.00;98878.78;4366977;32;20069;-78
2022/01/22 06:37:14;;;;;;;6.25;2.60;;;;;;;-4.73;100.00;98845.81;4356576;32;20036;-79
2022/01/22 06:42:41;;;;;;;6.28;1.62;;;;;;;-4.24;100.00;98909.13;4339130;33;20104;-80
2022/01/22 06:45:10;;;;;;;2.90;2.33;;;;;;;-4.47;100.00;98864.97;4352585;32;20043;-78
2022/01/22 06:47:41;;;;;;;4.93;1.55;;;;;;;-4.15;100.00;98913.44;4355243;32;20181;-79
2022/01/22 06:50:08;;;;;;;4.32;1.83;;;;;;;-4.12;100.00;98910.47;4355119;32;20063;-77
2022/01/22 06:52:43;;;;;;;6.95;1.98;;;;;;;-4.34;100.00;98869.81;4351688;33;20035;-80
2022/01/22 06:55:17;;;;;;;4.97;2.12;;;;;;;-4.00;100.00;98908.41;4354355;32;20055;-83
2022/01/22 06:57:44;;;;;;;5.25;1.92;;;;;;;-4.19;100.00;98883.19;4354443;32;20058;-80
2022/01/22 07:00:12;;;;;;;5.45;1.58;;;;;;;-3.90;100.00;98924.06;4356675;32;20073;-82
2022/01/22 07:02:40;;;;;;;2.03;1.25;;;;;;;-3.84;100.00;98940.03;4365822;32;20110;-81
2022/01/22 07:05:07;;;;;;;13.95;2.53;;;;;;;-3.76;100.00;98931.34;4361610;32;20099;-80
2022/01/22 07:07:36;;;;;;;2.62;1.30;;;;;;;-3.76;100.00;98933.16;4361800;32;20087;-81
2022/01/22 07:10:03;;;;;;;4.62;1.70;;;;;;;-3.72;100.00;98948.47;4369420;32;20084;-84
2022/01/22 07:12:31;;;;;;;6.53;1.60;;;;;;;-3.91;100.00;98896.09;4365806;32;20102;-84
2022/01/22 07:14:57;;;;;;;3.30;1.23;;;;;;;-3.73;100.00;98925.75;4369324;32;20106;-87
2022/01/22 07:17:24;;;;;;;4.90;1.60;;;;;;;-4.04;100.00;98892.12;4367679;32;20179;-86
2022/01/22 07:19:53;;;;;;;4.30;1.73;;;;;;;-3.67;100.00;98951.44;4363716;32;20126;-85
2022/01/22 07:22:37;;;;;;;8.07;1.87;;;;;;;-3.69;100.00;98948.13;4367917;32;20091;-82
2022/01/22 07:25:05;;;;;;;4.75;1.37;;;;;;;-3.71;100.00;98934.31;4369757;32;20390;-84
2022/01/22 07:27:34;;;;;;;7.37;2.15;;;;;;;-3.61;100.00;98946.50;4367573;32;20397;-89
2022/01/22 07:30:00;;;;;;;4.55;2.70;;;;;;;-3.56;100.00;98952.09;4367566;32;20435;-84
2022/01/22 07:32:34;;;;;;;6.43;3.25;;;;;;;-3.70;100.00;98950.91;4356153;32;20035;-83
2022/01/22 07:35:02;;;;;;;;;;;;;;;-3.61;100.00;98951.78;4355286;32;20051;-83
2022/01/22 07:37:28;;;;;;;1.87;1.62;;;;;;;-3.53;100.00;98988.63;4352837;32;19969;-85
2022/01/22 07:39:58;;;;;;;7.68;2.75;;;;;;;-3.67;100.00;98956.69;4354879;32;20044;-84
2022/01/22 07:42:26;;;;;;;4.82;2.03;;;;;;;-3.87;100.00;98931.63;4354546;32;20401;-85
2022/01/22 07:44:53;;;;;;;14.23;3.03;;;;;;;-4.07;100.00;98918.75;4353252;32;20053;-86
2022/01/22 07:47:20;;;;;;;6.25;1.90;;;;;;;-3.65;100.00;99002.09;4351832;32;20396;-83
2022/01/22 07:49:47;;;;;;;2.10;1.30;;;;;;;-3.65;100.00;99012.63;4351130;32;20077;-85
2022/01/22 07:52:14;;;;;;;10.55;2.83;;;;;;;-3.57;100.00;98997.84;4354764;32;20039;-86
2022/01/22 07:54:41;;;;;;;3.65;2.33;;;;;;;-3.48;100.00;99008.25;4355353;32;20043;-87
2022/01/22 07:57:07;;;;;;;4.35;2.37;;;;;;;-3.50;100.00;98994.41;4355801;32;20047;-81
2022/01/22 07:59:34;;;;;;;2.45;2.00;;;;;;;-3.40;100.00;98999.53;4356021;32;20036;-88
2022/01/22 08:02:03;;;;;;;3.42;1.30;;;;;;;-3.39;100.00;99005.63;4358586;32;20055;-84
2022/01/22 08:04:35;;;;;;;8.95;1.55;;;;;;;-3.58;100.00;98985.66;4357954;32;20215;-84
2022/01/22 08:07:08;;;;;;;3.05;1.45;;;;;;;-3.33;100.00;99036.59;4356139;32;20069;-80
2022/01/22 08:09:39;;;;;;;;;;;;;;;-3.34;100.00;99035.75;4355032;32;20200;-84
2022/01/22 08:12:06;;;;;;;8.60;2.30;;;;;;;-3.22;100.00;99038.09;4358828;32;20315;-84
2022/01/22 08:14:33;;;;;;;8.32;2.30;;;;;;;-3.50;100.00;99001.47;4359174;32;20433;-84
2022/01/22 08:17:00;;;;;;;5.55;1.40;;;;;;;-3.29;100.00;99027.38;4362605;32;20109;-81
2022/01/22 08:19:27;;;;;;;5.93;1.87;;;;;;;-3.26;100.00;99042.03;4360622;32;20150;-85
2022/01/22 08:21:54;;;;;;;5.10;1.52;;;;;;;-3.37;100.00;99030.81;4363014;32;20122;-84
2022/01/22 08:24:30;;;;;;;2.62;1.60;;;;;;;-3.55;100.00;98993.25;4361327;32;20047;-85
2022/01/22 08:29:39;;;;;;;13.25;2.33;;;;;;;-3.52;100.00;98985.03;4365754;32;20142;-85
2022/01/22 08:37:29;;;;;;;7.95;2.53;;;;;;;-3.13;100.00;99058.19;4362303;32;20446;-85
2022/01/22 08:39:56;;;;;;;7.20;2.25;;;;;;;-3.03;100.00;99048.37;4360153;32;20052;-84
2022/01/22 08:42:24;;;;;;;4.37;2.50;;;;;;;-3.03;100.00;99058.06;4360392;32;20061;-82
2022/01/22 08:44:51;;;;;;;11.90;3.15;;;;;;;-3.03;100.00;99053.63;4359540;32;20047;-82
2022/01/22 08:47:18;;;;;;;11.90;2.58;;;;;;;-2.98;100.00;99046.06;4360144;32;20155;-81
2022/01/22 08:49:46;;;;;;;7.15;2.67;;;;;;;-3.10;100.00;99052.62;4356977;32;20098;-81
2022/01/22 08:52:15;;;;;;;3.58;1.83;;;;;;;-2.95;100.00;99063.37;4357563;32;20089;-81
2022/01/22 08:54:43;;;;;;;6.22;2.60;;;;;;;-3.07;100.00;99078.63;4357440;32;20028;-74
2022/01/22 08:57:10;;;;;;;6.65;2.60;;;;;;;-3.06;100.00;99061.00;4355250;32;20062;-73
2022/01/22 08:59:39;;;;;;;16.77;3.67;;;;;;;-2.95;100.00;99051.00;4356680;32;20110;-73
2022/01/22 09:02:06;;;;;;;10.30;3.10;;;;;;;-3.19;100.00;99037.75;4356997;32;20431;-74
2022/01/22 09:04:34;;;;;;;5.15;2.87;;;;;;;-2.87;100.00;99088.88;4354793;32;20426;-75
2022/01/22 09:07:04;;;;;;;12.10;3.20;;;;;;;-2.90;100.00;99084.78;4355700;32;20965;-73
2022/01/22 09:09:31;;;;;;;6.37;3.05;;;;;;;-2.90;100.00;99089.19;4356825;32;20069;-74
2022/01/22 09:11:57;;;;;;;11.20;2.65;;;;;;;-2.85;100.00;99086.94;4355251;32;20036;-73
2022/01/22 09:14:25;;;;;;;11.18;3.62;;;;;;;-2.78;100.00;99103.72;4352133;32;20039;-75
2022/01/22 09:16:53;;;;;;;5.80;2.33;;;;;;;-2.76;100.00;99114.94;4353961;32;20044;-74
2022/01/22 09:19:23;;;;;;;8.07;1.87;;;;;;;-2.73;100.00;99133.06;4356646;32;20035;-74
2022/01/22 09:21:50;;;;;;;6.53;2.40;;;;;;;-2.99;100.00;99076.00;4347691;32;20043;-74
2022/01/22 09:24:17;;;;;;;9.95;3.95;;;;;;;-2.77;100.00;99137.03;4354196;32;20028;-74
2022/01/22 09:26:45;;;;;;;5.03;2.55;;;;;;;-2.91;100.00;99088.38;4356582;32;20083;-74
2022/01/22 09:29:12;;;;;;;13.32;2.95;;;;;;;-2.97;100.00;99081.13;4355920;32;20122;-74
2022/01/22 09:31:39;;;;;;;6.75;3.35;;;;;;;-2.65;100.00;99119.91;4355647;32;20069;-73
2022/01/22 09:34:05;;;;;;;10.38;2.95;;;;;;;-2.52;100.00;99155.50;4354803;32;20040;-73
2022/01/22 09:36:33;;;;;;;13.27;3.92;;;;;;;-2.47;100.00;99153.19;4363602;32;20036;-74
2022/01/22 09:39:04;;;;;;;;;;;;;;;-2.45;100.00;99177.63;4356102;32;20027;-73
2022/01/22 09:41:32;;;;;;;11.15;3.25;;;;;;;-2.44;100.00;99150.25;4356584;32;19934;-73
2022/01/22 09:44:00;;;;;;;5.93;1.80;;;;;;;-2.37;100.00;99164.44;4353497;32;20048;-73
2022/01/22 09:46:28;;;;;;;10.70;3.45;;;;;;;-2.53;100.00;99159.16;4354151;32;20209;-74
2022/01/22 09:48:57;;;;;;;13.18;4.25;;;;;;;-2.65;100.00;99114.66;4355890;32;20044;-73
2022/01/22 09:51:25;;;;;;;7.97;3.33;;;;;;;-2.45;100.00;99156.53;4353585;32;20054;-73
2022/01/22 09:53:53;;;;;;;8.25;3.50;;;;;;;-2.47;100.00;99154.03;4353345;32;20057;-71
2022/01/22 09:56:24;;;;;;;13.13;3.17;;;;;;;-2.41;100.00;99148.13;4352448;32;20397;-71
2022/01/22 09:58:51;;;;;;;8.80;2.95;;;;;;;-2.61;100.00;99138.88;4356768;32;20967;-73
2022/01/22 10:01:34;;;;;;;12.63;2.72;;;;;;;-2.38;100.00;99168.06;4354774;32;20061;-72
2022/01/22 10:04:04;;;;;;;12.37;3.17;;;;;;;-2.48;100.00;99177.94;4353868;32;20415;-78
2022/01/22 10:06:47;;;;;;;7.03;2.28;;;;;;;-2.48;100.00;99188.50;4354810;32;20328;-73
2022/01/22 10:09:25;;;;;;;9.35;2.67;;;;;;;-2.54;100.00;99183.84;4353425;32;20036;-74
2022/01/22 10:12:09;;;;;;;12.40;4.07;;;;;;;-2.86;100.00;99143.25;4351321;32;20382;-74
2022/01/22 10:15:03;;;;;;;8.60;3.45;;;;;;;-2.54;100.00;99191.75;4351974;32;20044;-71
2022/01/22 10:17:40;;;;;;;11.77;3.05;;;;;;;-2.55;100.00;99188.31;4352739;32;20069;-73
2022/01/22 10:20:25;;;;;;;9.20;3.85;;;;;;;-2.45;100.00;99193.44;4351403;32;20057;-73
2022/01/22 10:22:54;;;;;;;11.43;3.35;;;;;;;-2.65;100.00;99135.75;4351347;32;20362;-78
2022/01/22 10:25:49;;;;;;;21.60;3.55;;;;;;;-2.31;100.00;99190.16;4354448;32;20044;-72
2022/01/22 10:28:23;;;;;;;13.65;4.20;;;;;;;-2.42;100.00;99187.84;4352941;32;20074;-75
2022/01/22 10:30:58;;;;;;;19.37;3.87;;;;;;;-2.66;100.00;99163.06;4354009;32;20043;-73
2022/01/22 10:33:33;;;;;;;19.50;4.90;;;;;;;-2.47;100.00;99190.12;4355736;32;20069;-72
2022/01/22 10:36:12;;;;;;;12.50;3.10;;;;;;;-2.58;100.00;99157.81;4352382;32;20475;-76
2022/01/22 10:38:42;;;;;;;14.48;4.80;;;;;;;-2.59;100.00;99164.06;4355360;32;20818;-72
2022/01/22 10:41:09;;;;;;;15.48;3.80;;;;;;;-2.35;100.00;99212.56;4355108;32;20081;-73
2022/01/22 10:43:42;;;;;;;8.40;3.55;;;;;;;-2.66;100.00;99170.97;4355160;32;20050;-72
2022/01/22 10:46:20;;;;;;;8.20;2.85;;;;;;;-2.65;100.00;99151.56;4353362;32;20043;-72
2022/01/22 10:48:57;;;;;;;7.62;3.15;;;;;;;-2.35;100.00;99204.66;4355803;32;20063;-72
2022/01/22 10:51:26;;;;;;;7.47;2.95;;;;;;;-2.58;100.00;99178.09;4353664;32;20065;-72
2022/01/22 10:54:01;;;;;;;5.62;2.37;;;;;;;-2.52;100.00;99208.25;4353058;32;20065;-74
2022/01/22 10:56:30;;;;;;;10.82;3.92;;;;;;;-2.61;100.00;99187.13;4353826;32;20024;-71
2022/01/22 10:59:11;;;;;;;12.02;3.72;;;;;;;-2.26;100.00;99235.34;4358864;32;20114;-72
2022/01/22 11:01:56;;;;;;;6.12;2.58;;;;;;;-2.24;100.00;99206.97;4356139;32;20039;-72
2022/01/22 11:04:22;;;;;;;11.75;2.97;;;;;;;-2.04;100.00;99243.62;4353278;32;20095;-73
2022/01/22 11:06:52;;;;;;;12.68;3.67;;;;;;;-2.14;100.00;99259.59;4351736;32;20065;-78
2022/01/22 11:09:20;;;;;;;13.25;4.28;;;;;;;-2.12;100.00;99238.31;4356640;32;20061;-71
2022/01/22 11:11:48;;;;;;;9.18;3.17;;;;;;;-2.09;100.00;99245.91;4351875;32;20091;-73
2022/01/22 11:14:16;;;;;;;9.52;3.85;;;;;;;-2.05;100.00;99244.63;4354683;32;20485;-73
2022/01/22 11:16:46;;;;;;;13.35;5.12;;;;;;;-2.03;100.00;99240.84;4354099;32;20044;-77
2022/01/22 11:19:15;;;;;;;12.50;3.83;;;;;;;-2.23;100.00;99198.09;4354282;32;20060;-73
2022/01/22 11:21:47;;;;;;;19.23;4.68;;;;;;;-1.99;100.00;99243.97;4354481;32;20035;-73
2022/01/22 11:24:16;;;;;;;7.25;3.22;;;;;;;-1.94;100.00;99232.94;4356004;32;20126;-73
2022/01/22 11:26:46;;;;;;;15.27;4.47;;;;;;;-1.78;100.00;99263.78;4353173;32;20065;-74
2022/01/22 11:29:14;;;;;;;10.15;4.35;;;;;;;-1.77;100.00;99265.41;4355786;32;20056;-73
2022/01/22 11:31:45;;;;;;;23.40;5.50;;;;;;;-2.18;100.00;99209.97;4356580;32;20036;-73
2022/01/22 11:34:15;;;;;;;20.30;5.07;;;;;;;-2.03;100.00;99219.72;4356463;32;20077;-76
2022/01/22 11:37:13;;;;;;;11.50;4.12;;;;;;;-1.68;100.00;99272.34;4358135;32;20071;-73
2022/01/22 11:39:40;;;;;;;14.13;4.12;;;;;;;-1.59;100.00;99268.72;4349495;32;20065;-75
2022/01/22 11:42:08;;;;;;;9.60;2.53;;;;;;;-1.61;100.00;99283.94;4357613;32;20083;-72
2022/01/22 11:44:48;;;;;;;21.25;5.60;;;;;;;-1.68;100.00;99277.63;4357151;32;20040;-71
2022/01/22 11:47:20;;;;;;;17.98;5.62;;;;;;;-1.62;100.00;99294.66;4342872;33;20062;-73
2022/01/22 11:50:10;;;;;;;18.20;5.05;;;;;;;-1.92;100.00;99255.50;4367835;32;20060;-74
2022/01/22 11:52:39;;;;;;;16.70;4.28;;;;;;;-1.71;100.00;99307.00;4367390;32;20051;-73
2022/01/22 11:55:07;;;;;;;4.68;2.72;;;;;;;-1.68;100.00;99314.59;4352752;32;20129;-76
2022/01/22 11:57:34;;;;;;;20.50;5.37;;;;;;;-1.96;100.00;99291.16;4356143;32;20060;-72
2022/01/22 12:00:20;;;;;;;3.28;1.73;;;;;;;-2.05;100.00;99252.53;4355623;32;20044;-75
2022/01/22 12:03:08;;;;;;;14.20;4.90;;;;;;;-1.85;100.00;99308.47;4355328;32;20048;-78
2022/01/22 12:05:54;;;;;;;14.90;4.37;;;;;;;-1.74;100.00;99299.41;4355916;32;20062;-74
2022/01/22 12:08:22;;;;;;;7.68;2.33;;;;;;;-1.79;100.00;99322.84;4354180;32;20056;-75
2022/01/22 12:16:40;;;;;;;17.77;5.95;;;;;;;-1.70;100.00;99316.59;4357993;32;20799;-72
2022/01/22 12:20:06;;;;;;;11.07;3.85;;;;;;;-1.70;100.00;99329.78;4356813;32;20043;-74
2022/01/22 12:22:35;;;;;;;16.12;2.90;;;;;;;-1.74;100.00;99317.88;4340859;33;20434;-72
2022/01/22 12:25:14;;;;;;;10.43;4.10;;;;;;;-1.91;100.00;99280.91;4338261;33;20057;-72
2022/01/22 12:27:46;;;;;;;15.93;4.75;;;;;;;-1.71;100.00;99344.81;4339046;33;20335;-73
2022/01/22 12:30:14;;;;;;;9.30;3.65;;;;;;;-1.96;100.00;99321.97;4340276;33;20062;-73
2022/01/22 12:32:51;;;;;;;16.83;4.62;;;;;;;-2.02;100.00;99310.25;4338531;33;20052;-73
2022/01/22 12:35:36;;;;;;;13.88;3.85;;;;;;;-1.83;100.00;99332.91;4328293;33;20086;-72
2022/01/22 12:38:20;;;;;;;8.38;3.60;;;;;;;-1.73;100.00;99336.22;4327784;33;20032;-74
2022/01/22 12:40:51;;;;;;;15.88;4.57;;;;;;;-1.70;100.00;99350.91;4340579;33;20397;-73
2022/01/22 12:43:26;;;;;;;21.85;5.03;;;;;;;-1.73;100.00;99345.94;4339620;33;20448;-75
2022/01/22 12:45:57;;;;;;;10.88;3.58;;;;;;;-1.73;100.00;99351.22;4338496;33;20358;-72
2022/01/22 12:48:28;;;;;;;19.95;5.30;;;;;;;-2.01;100.00;99302.19;4327551;33;20035;-73
2022/01/22 12:51:03;;;;;;;13.68;5.72;;;;;;;-2.03;100.00;99303.31;4339708;33;20106;-74
2022/01/22 12:53:32;;;;;;;15.63;4.68;;;;;;;-1.68;100.00;99364.78;4333299;33;20064;-73
2022/01/22 12:58:29;;;;;;;10.88;4.15;;;;;;;-1.75;100.00;99366.41;4352865;32;20061;-73
2022/01/22 13:01:14;;;;;;;17.77;5.05;;;;;;;-1.85;100.00;99348.06;4356967;32;20040;-73
2022/01/22 13:03:50;;;;;;;16.42;2.12;;;;;;;-1.77;100.00;99356.03;4357628;32;20279;-72
2022/01/22 13:06:18;;;;;;;20.52;5.93;;;;;;;-1.81;100.00;99356.50;4356422;32;20060;-73
2022/01/22 13:08:57;;;;;;;13.02;5.40;;;;;;;-1.75;100.00;99355.84;4356538;32;20071;-77
2022/01/22 13:11:28;;;;;;;18.67;4.43;;;;;;;-1.94;100.00;99336.66;4356143;32;20077;-73
2022/01/22 13:14:01;;;;;;;13.18;5.15;;;;;;;-1.80;100.00;99377.47;4362599;32;20117;-73
2022/01/22 13:16:27;;;;;;;12.73;4.80;;;;;;;-1.98;100.00;99337.97;4372763;32;20537;-74
2022/01/22 13:18:58;;;;;;;18.42;6.10;;;;;;;-1.77;100.00;99392.97;4369576;32;20055;-75